Latest Coastal Weather Observations for Warrnambool

IDV60701

Issued at 5:21 am EDT Monday 26 January 2015 (issued every 10 minutes, with the page automatically refreshed every 10 minutes)

About coastal observations | Map of coastal stations | Coastal observations for VIC | Marine services | Other Formats
Station Details ID: 090186 Name: WARRNAMBOOL AIRPORT NDB Lat: -38.29 Lon: 142.45 Height: 70.8 m
Data from the previous 72 hours. | See also: Recent months at Warrnambool
Date/Time
EDT
Temp

°C
Wind Pressure Rain
since 9am
mm
Weather Cloud Vis
km
Sea
Height
m
Swell
Dir
 
Speed
knots
Gust
knots
hPa Trend Height
m
Period
s
Dir
26/05:00am 8.4 NNW 6 8 1014.9 - 1.8 - - - - - - -
26/04:30am 8.6 NW 7 10 1014.7 - 1.8 - - - - - - -
26/04:00am 10.1 W 3 5 1014.5 - 1.8 - - - - - - -
26/03:30am 10.0 SW 1 8 1014.4 - 1.8 - - - - - - -
26/03:00am 10.4 WSW 3 4 1014.5 - 1.6 Recent precip. - - - - - -
26/02:30am 10.5 W 9 13 1014.6 - 0.8 - - - - - - -
26/02:00am 9.7 NW 7 8 1014.2 - 0.8 - - - - - - -
26/01:30am 9.9 NW 7 9 1014.3 - 0.8 - - - - - - -
26/01:00am 10.1 NW 7 9 1014.2 - 0.8 - - - - - - -
26/12:30am 9.1 NNW 6 7 1014.2 - 0.8 - - - - - - -
 
Date/Time
EDT
Temp

°C
Wind Pressure Rain
since 9am
mm
Weather Cloud Vis
km
Sea
Height
m
Swell
Dir
 
Speed
knots
Gust
knots
hPa Trend Height
m
Period
s
Dir
25/11:30pm 9.2 WNW 6 8 1014.0 - 0.2 - - - - - - -
25/11:00pm 10.4 WNW 6 9 1014.0 - 0.2 - - - - - - -
25/10:30pm 11.5 WNW 9 11 1013.9 - 0.2 - - - - - - -
25/10:00pm 11.3 WNW 6 8 1013.7 - 0.2 - - - - - - -
25/09:30pm 11.3 WNW 6 8 1013.4 - 0.2 - - - - - - -
25/09:00pm 12.1 W 10 15 1013.3 - 0.2 Recent precip. - - - - - -
25/08:30pm 13.0 WSW 10 13 1012.9 - 0.0 - - - - - - -
25/08:00pm 14.4 WSW 15 21 1012.7 - 0.0 - - - - - - -
25/07:30pm 15.2 WSW 15 22 1012.4 - 0.0 - - - - - - -
25/07:00pm 14.8 WSW 14 19 1012.2 - 0.0 - - - - - - -
25/06:30pm 15.7 WSW 17 25 1011.9 - 0.0 - - - - - - -
25/06:00pm 14.7 WSW 15 23 1011.8 - 0.0 - - - - - - -
25/05:54pm 14.8 WSW 15 25 1011.8 - 0.0 - - - - - - -
25/05:30pm 14.9 WSW 17 22 1011.7 - 0.0 - - - - - - -
25/05:10pm 15.3 WSW 18 28 1011.6 - 0.0 - - - - - - -
25/05:00pm 16.4 WSW 20 27 1011.4 - 0.0 - - - - - - -
25/04:30pm 17.3 WSW 21 27 1011.1 - 0.0 - - - - - - -
25/04:00pm 16.3 WSW 23 28 1011.2 - 0.0 - - - - - - -
25/03:35pm 17.7 WSW 21 31 1010.9 - 0.0 - - - - - - -
25/03:30pm 18.1 WSW 21 30 1010.8 - 0.0 - - - - - - -
25/03:00pm 18.1 WSW 21 28 1010.6 - 0.0 - - - - - - -
25/02:30pm 17.1 WSW 25 31 1010.6 - 0.0 - - - - - - -
25/02:00pm 17.6 WSW 21 29 1010.5 - 0.0 - - - - - - -
25/01:34pm 15.1 W 23 33 1010.5 - 0.0 - - - - - - -
25/01:30pm 18.2 WSW 22 30 1010.4 - 0.0 - - - - - - -
25/01:00pm 16.4 WSW 21 29 1010.0 - 0.0 - - - - - - -
25/12:30pm 17.4 W 22 28 1009.9 - 0.0 - - - - - - -
25/12:00pm 17.0 W 21 30 1009.7 - 0.0 - - - - - - -
25/11:30am 15.8 W 20 29 1009.4 - 0.0 - - - - - - -
25/11:00am 15.4 WSW 20 28 1009.3 - 0.0 - - - - - - -
25/10:30am 15.2 W 18 24 1009.1 - 0.0 - - - - - - -
25/10:00am 14.3 WSW 20 28 1008.7 - 0.0 - - - - - - -
25/09:54am 15.0 WSW 17 28 1008.5 - 0.0 - - - - - - -
25/09:30am 14.3 WNW 12 17 1008.3 - 0.0 - - - - - - -
25/09:00am 13.5 WNW 11 15 1007.9 - 5.0 - - - - - - -
25/08:30am 13.2 WNW 9 15 1007.6 - 5.0 - - - - - - -
25/08:00am 11.6 NW 7 11 1007.1 - 5.0 - - - - - - -
25/07:30am 11.4 NW 9 13 1006.7 - 5.0 - - - - - - -
25/07:00am 11.1 WNW 8 11 1006.4 - 5.0 - - - - - - -
25/06:30am 10.5 NW 8 11 1006.2 - 4.8 - - - - - - -
25/06:00am 10.8 NW 7 10 1005.8 - 4.8 - - - - - - -
25/05:30am 11.7 WNW 7 10 1005.5 - 4.8 - - - - - - -
25/05:00am 12.1 WNW 9 12 1005.2 - 4.8 - - - - - - -
25/04:30am 12.4 WNW 12 17 1005.1 - 4.6 - - - - - - -
25/04:00am 12.2 NW 7 9 1004.7 - 3.8 - - - - - - -
25/03:30am 12.5 W 10 15 1004.8 - 3.8 - - - - - - -
25/03:00am 12.6 W 9 12 1004.8 - 3.6 Recent precip. - - - - - -
25/02:30am 12.9 W 10 14 1004.6 - 3.4 - - - - - - -
25/02:00am 13.3 W 10 15 1004.6 - 2.2 - - - - - - -
25/01:30am 13.4 W 11 14 1004.5 - 1.8 - - - - - - -
25/01:00am 13.5 W 14 19 1004.6 - 1.4 - - - - - - -
25/12:30am 13.8 W 13 17 1004.7 - 1.4 - - - - - - -
25/12:12am 15.4 W 13 29 1004.6 - 0.2 - - - - - - -
25/12:00am 16.1 WNW 10 14 1004.2 - 0.0 - - - - - - -
 
Date/Time
EDT
Temp

°C
Wind Pressure Rain
since 9am
mm
Weather Cloud Vis
km
Sea
Height
m
Swell
Dir
 
Speed
knots
Gust
knots
hPa Trend Height
m
Period
s
Dir
24/11:30pm 16.6 WNW 13 18 1003.9 - 0.0 - - - - - - -
24/11:00pm 17.5 WNW 15 23 1004.1 - 0.0 - - - - - - -
24/10:58pm 17.6 WNW 15 23 1004.1 - 0.0 - - - - - - -
24/10:30pm 17.6 WSW 9 12 1003.9 - 0.0 - - - - - - -
24/10:00pm 18.0 W 6 11 1003.6 - 0.0 - - - - - - -
24/09:30pm 17.5 WNW 6 8 1003.1 - 0.0 - - - - - - -
24/09:00pm 18.1 WNW 7 9 1002.7 - 0.0 - - - - - - -
24/08:30pm 19.6 W 9 13 1002.3 - 0.0 - - - - - - -
24/08:00pm 20.9 WSW 12 17 1002.2 - 0.0 - - - - - - -
24/07:30pm 22.2 WSW 15 20 1001.9 - 0.0 - - - - - - -
24/07:00pm 23.1 W 17 24 1001.7 - 0.0 - - - - - - -
24/06:30pm 23.3 W 13 18 1001.7 - 0.0 - - - - - - -
24/06:00pm 23.3 W 16 21 1001.8 - 0.0 - - - - - - -
24/05:30pm 22.4 SW 13 17 1002.3 - 0.0 - - - - - - -
24/05:00pm 20.8 SSW 14 20 1002.7 - 0.0 - - - - - - -
24/04:30pm 20.5 SW 16 22 1003.2 - 0.0 - - - - - - -
24/04:00pm 21.2 SSW 16 22 1003.4 - 0.0 - - - - - - -
24/03:30pm 21.2 SSW 18 23 1003.5 - 0.0 - - - - - - -
24/03:10pm 20.2 W 15 25 1003.6 - 0.0 - - - - - - -
24/03:00pm 24.2 WNW 13 18 1003.4 - 0.0 - - - - - - -
24/02:30pm 24.4 NW 12 21 1003.7 - 0.0 - - - - - - -
24/02:00pm 23.7 NW 12 19 1004.1 - 0.0 - - - - - - -
24/01:30pm 22.0 NW 12 18 1004.4 - 0.0 - - - - - - -
24/01:00pm 22.1 NW 11 17 1004.8 - 0.0 - - - - - - -
24/12:30pm 20.6 NW 9 17 1005.1 - 0.0 - - - - - - -
24/12:00pm 20.3 NW 9 15 1005.4 - 0.0 - - - - - - -
24/11:30am 19.4 WNW 9 15 1005.7 - 0.0 - - - - - - -
24/11:00am 19.4 WNW 10 16 1006.1 - 0.0 - - - - - - -
24/10:30am 18.9 WNW 10 14 1006.4 - 0.0 - - - - - - -
24/10:00am 18.3 WNW 9 13 1006.4 - 0.0 - - - - - - -
24/09:30am 17.1 WNW 8 11 1006.5 - 0.0 - - - - - - -
24/09:00am 16.4 WNW 8 12 1006.6 - 0.0 - - - - - - -
24/08:30am 14.5 NW 7 9 1006.6 - 0.0 - - - - - - -
24/08:00am 12.8 NW 7 9 1006.4 - 0.0 - - - - - - -
24/07:30am 11.4 NW 7 9 1006.3 - 0.0 - - - - - - -
24/07:00am 10.5 NW 6 7 1006.4 - 0.0 - - - - - - -
24/06:30am 10.8 NW 6 8 1006.2 - 0.0 - - - - - - -
24/06:00am 11.0 NW 5 7 1006.2 - 0.0 - - - - - - -
24/05:30am 11.2 WNW 5 6 1005.9 - 0.0 - - - - - - -
24/05:00am 11.9 NW 3 4 1005.7 - 0.0 - - - - - - -
24/04:30am 13.5 NW 4 5 1005.8 - 0.0 - - - - - - -
24/04:00am 13.9 NW 3 5 1006.1 - 0.0 - - - - - - -
24/03:30am 14.0 NNE 4 5 1006.3 - 0.0 - - - - - - -
24/03:00am 14.0 CALM 0 5 1006.6 - 0.0 - - - - - - -
24/02:30am 14.1 NE 3 4 1006.9 - 0.0 - - - - - - -
24/02:00am 14.1 NE 3 5 1007.4 - 0.0 - - - - - - -
24/01:30am 14.4 ENE 3 5 1007.6 - 0.0 - - - - - - -
24/01:00am 14.4 E 3 4 1007.8 - 0.0 - - - - - - -
24/12:30am 14.3 ESE 2 4 1008.4 - 0.0 - - - - - - -
24/12:00am 14.5 E 4 5 1008.6 - 0.0 - - - - - - -
 
Date/Time
EDT
Temp

°C
Wind Pressure Rain
since 9am
mm
Weather Cloud Vis
km
Sea
Height
m
Swell
Dir
 
Speed
knots
Gust
knots
hPa Trend Height
m
Period
s
Dir
23/11:30pm 14.3 E 1 4 1009.0 - 0.0 - - - - - - -
23/11:00pm 13.9 CALM 0 0 1009.2 - 0.0 - - - - - - -
23/10:30pm 13.9 ESE 1 4 1009.1 - 0.0 - - - - - - -
23/10:00pm 13.7 SE 4 5 1008.9 - 0.0 - - - - - - -
23/09:30pm 14.4 SE 5 7 1008.6 - 0.0 - - - - - - -
23/09:00pm 15.3 SSE 6 6 1008.6 - 0.0 - - - - - - -
23/08:30pm 15.6 S 8 10 1008.4 - 0.0 - - - - - - -
23/08:00pm 16.6 S 10 12 1008.7 - 0.0 - - - - - - -
23/07:30pm 17.0 S 14 16 1008.4 - 0.0 - - - - - - -
23/07:00pm 17.0 SSW 13 16 1008.3 - 0.0 - - - - - - -
23/06:30pm 17.3 SSW 15 18 1008.3 - 0.0 - - - - - - -
23/06:00pm 18.6 SSW 15 19 1008.3 - 0.0 - - - - - - -
23/05:30pm 19.4 SSW 16 19 1008.1 - 0.0 - - - - - - -
23/05:00pm 19.9 SW 16 22 1008.2 - 0.0 - - - - - - -
23/04:30pm 20.4 SW 15 20 1008.2 - 0.0 - - - - - - -
23/04:00pm 19.9 SSW 17 22 1008.3 - 0.0 - - - - - - -
23/03:30pm 19.8 SSW 15 20 1008.2 - 0.0 - - - - - - -
23/03:00pm 21.2 SSW 14 18 1008.1 - 0.0 - - - - - - -
23/02:30pm 20.1 SSW 16 20 1008.1 - 0.0 - - - - - - -
23/02:00pm 20.9 SSW 14 19 1008.2 - 0.0 - - - - - - -
23/01:30pm 20.5 SSW 17 22 1008.4 - 0.0 - - - - - - -
23/01:00pm 20.9 SW 14 19 1008.2 - 0.0 - - - - - - -
23/12:30pm 20.6 SW 14 20 1007.9 - 0.0 - - - - - - -
23/12:00pm 20.1 W 13 20 1008.2 - 0.0 - - - - - - -
23/11:30am 19.0 WSW 12 19 1008.2 - 0.0 - - - - - - -
23/11:00am 17.3 WSW 15 21 1008.6 - 0.0 - - - - - - -
23/10:30am 17.1 WSW 15 21 1008.2 - 0.0 - - - - - - -
23/10:00am 16.6 WSW 10 13 1007.8 - 0.0 - - - - - - -
23/09:30am 16.2 W 12 14 1007.5 - 0.0 - - - - - - -
23/09:00am 16.7 W 9 13 1007.2 - 0.0 - - - - - - -
23/08:30am 15.7 W 11 14 1007.1 - 0.0 - - - - - - -
23/08:00am 15.3 WNW 7 11 1006.4 - 0.0 - - - - - - -
23/07:30am 15.0 WNW 7 10 1006.1 - 0.0 - - - - - - -
23/07:00am 14.2 WNW 5 8 1005.8 - 0.0 - - - - - - -
23/06:30am 13.8 WNW 6 9 1005.5 - 0.0 - - - - - - -
23/06:00am 14.1 WNW 7 10 1005.3 - 0.0 - - - - - - -
23/05:30am 14.6 WNW 9 12 1004.9 - 0.0 - - - - - - -

Other Formats:

Comma delimited format used in spreadsheet applications
http://www.bom.gov.au/fwo/IDV60701/IDV60701.94837.axf

JavaScript Object Notation format (JSON) in row-major order
http://www.bom.gov.au/fwo/IDV60701/IDV60701.94837.json